createdAt,value
2018-08-19T00:01:31.388Z,7.63
2018-08-19T00:03:59.954Z,8.10
2018-08-19T00:06:28.950Z,11.17
2018-08-19T00:09:01.581Z,16.63
2018-08-19T00:11:30.019Z,18.87
2018-08-19T00:13:58.887Z,17.17
2018-08-19T00:16:27.292Z,13.43
2018-08-19T00:18:56.110Z,11.40
2018-08-19T00:21:24.830Z,10.67
2018-08-19T00:23:53.231Z,9.70
2018-08-19T00:26:21.636Z,9.73
2018-08-19T00:28:50.274Z,10.00
2018-08-19T00:31:18.677Z,9.03
2018-08-19T00:33:47.055Z,9.27
2018-08-19T00:36:27.622Z,9.70
2018-08-19T00:38:57.131Z,10.50
2018-08-19T00:41:26.525Z,9.93
2018-08-19T00:43:55.008Z,10.53
2018-08-19T00:46:29.763Z,10.37
2018-08-19T00:48:59.753Z,9.73
2018-08-19T00:51:29.667Z,10.47
2018-08-19T00:53:58.647Z,11.77
2018-08-19T00:56:27.049Z,10.57
2018-08-19T00:58:55.451Z,9.47
2018-08-19T01:01:33.792Z,10.80
2018-08-19T01:04:02.939Z,10.17
2018-08-19T01:06:38.561Z,10.73
2018-08-19T01:09:08.601Z,10.47
2018-08-19T01:11:38.148Z,10.23
2018-08-19T01:14:09.538Z,10.13
2018-08-19T01:16:37.945Z,10.77
2018-08-19T01:19:06.346Z,11.17
2018-08-19T01:21:34.739Z,11.77
2018-08-19T01:24:06.479Z,11.20
2018-08-19T01:26:36.882Z,10.43
2018-08-19T01:29:07.054Z,10.73
2018-08-19T01:31:35.535Z,10.67
2018-08-19T01:34:10.643Z,10.50
2018-08-19T01:36:39.166Z,10.50
2018-08-19T01:39:10.352Z,11.23
2018-08-19T01:41:40.374Z,10.93
2018-08-19T01:44:11.416Z,10.50
2018-08-19T01:46:42.399Z,10.53
2018-08-19T01:49:11.946Z,11.20
2018-08-19T01:51:43.506Z,11.43
2018-08-19T01:54:17.318Z,10.93
2018-08-19T01:56:46.272Z,10.00
2018-08-19T01:59:14.663Z,10.37
2018-08-19T02:01:52.289Z,9.37
2018-08-19T02:04:21.839Z,10.30
2018-08-19T02:06:50.241Z,9.97
2018-08-19T02:09:20.159Z,9.83
2018-08-19T02:11:54.869Z,11.00
2018-08-19T02:14:24.817Z,9.90
2018-08-19T02:16:54.839Z,10.10
2018-08-19T02:19:23.233Z,10.07
2018-08-19T02:21:52.821Z,10.47
2018-08-19T02:24:21.885Z,8.77
2018-08-19T02:26:50.237Z,9.77
2018-08-19T02:29:33.739Z,9.17
2018-08-19T02:32:06.218Z,8.90
2018-08-19T02:34:43.443Z,8.37
2018-08-19T02:37:14.544Z,8.43
2018-08-19T02:39:46.098Z,9.30
2018-08-19T02:42:27.386Z,8.10
2018-08-19T02:45:00.205Z,8.33
2018-08-19T02:47:28.970Z,8.40
2018-08-19T02:49:57.369Z,8.07
2018-08-19T02:52:31.469Z,8.10
2018-08-19T02:55:01.486Z,8.20
2018-08-19T02:57:31.072Z,7.80
2018-08-19T03:00:01.091Z,8.30
2018-08-19T03:02:36.730Z,7.63
2018-08-19T03:05:13.617Z,8.50
2018-08-19T03:07:43.290Z,7.90
2018-08-19T03:10:16.517Z,8.30
2018-08-19T03:12:46.040Z,8.40
2018-08-19T03:15:16.121Z,9.00
2018-08-19T03:17:47.445Z,8.30
2018-08-19T03:20:15.817Z,7.93
2018-08-19T03:22:44.558Z,7.73
2018-08-19T03:25:12.957Z,8.37
2018-08-19T03:27:41.359Z,7.97
2018-08-19T03:30:14.957Z,8.97
2018-08-19T03:32:49.763Z,8.50
2018-08-19T03:35:20.260Z,8.57
2018-08-19T03:37:54.300Z,8.63
2018-08-19T03:40:25.622Z,8.67
2018-08-19T03:42:54.809Z,8.10
2018-08-19T03:45:23.417Z,7.90
2018-08-19T03:47:53.431Z,9.13
2018-08-19T03:50:24.495Z,8.43
2018-08-19T03:52:53.947Z,8.90
2018-08-19T03:55:29.543Z,8.73
2018-08-19T03:58:03.231Z,8.87
2018-08-19T04:00:36.249Z,9.37
2018-08-19T04:03:12.922Z,8.23
2018-08-19T04:05:45.963Z,8.83
2018-08-19T04:08:15.584Z,8.37
2018-08-19T04:10:45.491Z,8.87
2018-08-19T04:13:33.334Z,8.67
2018-08-19T04:16:03.558Z,8.77
2018-08-19T04:18:36.642Z,9.00
2018-08-19T04:21:10.274Z,8.37
2018-08-19T04:23:41.069Z,8.40
2018-08-19T04:26:10.265Z,8.83
2018-08-19T04:28:40.303Z,7.90
2018-08-19T04:31:25.076Z,8.73
2018-08-19T04:33:55.119Z,8.67
2018-08-19T04:36:25.085Z,8.87
2018-08-19T04:38:53.494Z,8.70
2018-08-19T04:41:22.162Z,8.60
2018-08-19T04:43:51.061Z,9.00
2018-08-19T04:46:19.498Z,8.67
2018-08-19T04:48:49.061Z,8.70
2018-08-19T04:51:17.471Z,8.77
2018-08-19T04:53:45.871Z,8.63
2018-08-19T04:56:14.256Z,8.90
2018-08-19T04:58:42.655Z,10.40
2018-08-19T05:01:12.426Z,11.87
2018-08-19T05:03:43.500Z,10.20
2018-08-19T05:06:11.926Z,10.93
2018-08-19T05:08:40.349Z,10.30
2018-08-19T05:11:08.742Z,10.40
2018-08-19T05:13:37.144Z,9.50
2018-08-19T05:16:05.978Z,9.20
2018-08-19T05:18:34.368Z,9.13
2018-08-19T05:21:08.132Z,10.20
2018-08-19T05:23:36.536Z,8.87
2018-08-19T05:26:04.946Z,9.17
2018-08-19T05:28:33.389Z,9.30
2018-08-19T05:31:01.759Z,8.53
2018-08-19T05:33:30.493Z,9.57
2018-08-19T05:35:58.896Z,8.87
2018-08-19T05:38:29.818Z,8.70
2018-08-19T05:40:59.333Z,9.23
2018-08-19T05:43:28.822Z,8.40
2018-08-19T05:45:58.297Z,9.77
2018-08-19T05:48:26.883Z,8.20
2018-08-19T05:50:56.219Z,8.77
2018-08-19T05:53:24.686Z,8.60
2018-08-19T05:55:53.959Z,8.77
2018-08-19T05:58:22.355Z,8.57
2018-08-19T06:00:59.707Z,7.67
2018-08-19T06:03:28.207Z,8.70
2018-08-19T06:05:57.325Z,8.80
2018-08-19T06:08:25.723Z,7.37
2018-08-19T06:10:54.134Z,8.50
2018-08-19T06:13:22.533Z,8.00
2018-08-19T06:15:50.973Z,8.30
2018-08-19T06:18:19.336Z,7.47
2018-08-19T06:20:47.723Z,7.63
2018-08-19T06:23:16.164Z,8.73
2018-08-19T06:25:44.563Z,8.03
2018-08-19T06:28:12.973Z,7.70
2018-08-19T06:30:41.366Z,8.23
2018-08-19T06:33:09.754Z,8.57
2018-08-19T06:35:38.151Z,8.90
2018-08-19T06:38:06.543Z,7.93
2018-08-19T06:40:34.929Z,8.63
2018-08-19T06:43:03.389Z,8.00
2018-08-19T06:45:31.936Z,8.33
2018-08-19T06:48:00.495Z,8.00
2018-08-19T06:50:30.618Z,7.83
2018-08-19T06:52:59.174Z,7.70
2018-08-19T06:55:27.711Z,7.57
2018-08-19T06:57:58.180Z,7.73
2018-08-19T07:00:29.548Z,8.27
2018-08-19T07:03:01.994Z,7.90
2018-08-19T07:05:31.169Z,8.20
2018-08-19T07:07:59.604Z,7.67
2018-08-19T07:10:35.390Z,8.43
2018-08-19T07:13:11.856Z,8.27
2018-08-19T07:15:41.422Z,7.67
2018-08-19T07:18:13.124Z,7.73
2018-08-19T07:20:42.492Z,7.50
2018-08-19T07:23:11.523Z,8.50
2018-08-19T07:25:42.515Z,8.73
2018-08-19T07:28:12.639Z,7.80
2018-08-19T07:30:42.292Z,8.60
2018-08-19T07:33:11.723Z,8.43
2018-08-19T07:35:40.209Z,7.97
2018-08-19T07:38:08.695Z,8.63
2018-08-19T07:40:37.162Z,8.03
2018-08-19T07:43:05.995Z,9.55
2018-08-19T07:45:34.486Z,8.03
2018-08-19T07:48:03.266Z,8.07
2018-08-19T07:50:31.753Z,7.00
2018-08-19T07:53:00.166Z,8.23
2018-08-19T07:55:28.569Z,7.83
2018-08-19T07:57:56.983Z,7.93
2018-08-19T08:00:30.607Z,7.50
2018-08-19T08:02:59.145Z,7.50
2018-08-19T08:05:32.940Z,6.77
2018-08-19T08:08:01.338Z,6.97
2018-08-19T08:10:34.973Z,6.30
2018-08-19T08:14:32.822Z,6.87
2018-08-19T08:17:01.286Z,7.10
2018-08-19T08:19:29.693Z,6.27
2018-08-19T08:22:03.974Z,6.77
2018-08-19T08:24:32.408Z,6.73
2018-08-19T08:27:00.872Z,6.97
2018-08-19T08:29:29.270Z,7.67
2018-08-19T08:31:59.324Z,8.07
2018-08-19T08:34:30.014Z,7.53
2018-08-19T08:37:01.356Z,7.90
2018-08-19T08:39:31.666Z,7.47
2018-08-19T08:42:00.158Z,6.97
2018-08-19T08:44:29.502Z,7.20
2018-08-19T08:47:02.753Z,7.53
2018-08-19T08:49:37.452Z,7.67
2018-08-19T08:52:11.951Z,8.33
2018-08-19T08:54:44.574Z,9.50
2018-08-19T08:57:13.093Z,7.43
2018-08-19T08:59:41.734Z,7.10
2018-08-19T09:02:10.259Z,7.60
2018-08-19T09:04:39.297Z,7.03
2018-08-19T09:07:07.824Z,6.97
2018-08-19T09:09:36.995Z,7.37
2018-08-19T09:12:05.403Z,8.00
2018-08-19T09:14:33.819Z,7.20
2018-08-19T09:17:02.227Z,7.23
2018-08-19T09:19:30.646Z,7.90
2018-08-19T09:21:59.129Z,7.50
2018-08-19T09:24:27.542Z,6.93
2018-08-19T09:26:56.044Z,7.10
2018-08-19T09:29:24.435Z,6.33
2018-08-19T09:31:52.863Z,6.67
2018-08-19T09:34:21.677Z,5.73
2018-08-19T09:36:50.321Z,5.27
2018-08-19T09:39:18.732Z,5.27
2018-08-19T09:41:47.127Z,5.60
2018-08-19T09:44:15.565Z,5.10
2018-08-19T09:46:43.953Z,5.40
2018-08-19T09:49:12.578Z,5.10
2018-08-19T09:51:41.068Z,5.83
2018-08-19T09:54:09.539Z,5.63
2018-08-19T09:56:39.891Z,5.60
2018-08-19T09:59:08.677Z,5.57
2018-08-19T10:01:45.146Z,6.20
2018-08-19T10:04:18.788Z,6.00
2018-08-19T10:06:50.592Z,6.13
2018-08-19T10:09:19.018Z,6.20
2018-08-19T10:11:47.420Z,6.63
2018-08-19T10:14:15.826Z,6.37
2018-08-19T10:16:47.012Z,6.47
2018-08-19T10:19:16.524Z,6.90
2018-08-19T10:21:46.034Z,7.23
2018-08-19T10:24:29.828Z,7.00
2018-08-19T10:26:58.554Z,7.00
2018-08-19T10:29:26.983Z,6.83
2018-08-19T10:31:59.420Z,7.10
2018-08-19T10:34:33.526Z,6.77
2018-08-19T10:37:03.034Z,6.80
2018-08-19T10:39:31.473Z,6.37
2018-08-19T10:42:17.913Z,6.43
2018-08-19T10:44:48.949Z,6.17
2018-08-19T10:47:18.358Z,6.50
2018-08-19T10:49:59.638Z,6.47
2018-08-19T10:52:30.209Z,6.57
2018-08-19T10:55:00.294Z,6.03
2018-08-19T10:57:28.742Z,6.43
2018-08-19T10:59:58.590Z,6.53
2018-08-19T11:02:27.444Z,6.90
2018-08-19T11:04:58.779Z,6.10
2018-08-19T11:07:27.907Z,5.40
2018-08-19T11:10:12.865Z,5.53
2018-08-19T11:12:41.460Z,5.50
2018-08-19T11:15:25.359Z,6.47
2018-08-19T11:17:54.451Z,6.43
2018-08-19T11:20:27.234Z,6.93
2018-08-19T11:22:56.667Z,6.20
2018-08-19T11:25:27.921Z,5.80
2018-08-19T11:27:58.635Z,5.63
2018-08-19T11:30:27.021Z,5.50
2018-08-19T11:32:55.407Z,5.67
2018-08-19T11:35:27.423Z,5.17
2018-08-19T11:37:56.226Z,5.73
2018-08-19T11:40:24.637Z,5.90
2018-08-19T11:42:53.080Z,5.47
2018-08-19T11:45:21.565Z,5.40
2018-08-19T11:47:54.791Z,6.10
2018-08-19T11:50:23.242Z,5.73
2018-08-19T11:52:56.084Z,5.50
2018-08-19T11:55:25.156Z,5.67
2018-08-19T11:57:53.790Z,5.60
2018-08-19T12:00:22.326Z,5.17
2018-08-19T12:02:51.614Z,5.50
2018-08-19T12:05:28.138Z,5.80
2018-08-19T12:08:00.982Z,5.33
2018-08-19T12:10:29.512Z,5.77
2018-08-19T12:12:59.508Z,5.90
2018-08-19T12:15:27.918Z,5.30
2018-08-19T12:17:56.317Z,5.03
2018-08-19T12:20:28.922Z,6.00
2018-08-19T12:22:57.322Z,5.60
2018-08-19T12:25:25.874Z,5.70
2018-08-19T12:27:54.790Z,5.57
2018-08-19T12:30:23.538Z,5.50
2018-08-19T12:32:56.967Z,7.67
2018-08-19T12:35:25.378Z,5.47
2018-08-19T12:37:53.794Z,5.70
2018-08-19T12:40:22.615Z,5.63
2018-08-19T12:42:54.585Z,6.10
2018-08-19T12:45:23.653Z,6.03
2018-08-19T12:47:52.086Z,5.63
2018-08-19T12:50:21.092Z,6.17
2018-08-19T12:52:50.535Z,7.77
2018-08-19T12:55:18.937Z,5.70
2018-08-19T12:57:52.129Z,6.17
2018-08-19T13:00:25.759Z,6.17
2018-08-19T13:02:55.144Z,6.40
2018-08-19T13:05:24.245Z,6.60
2018-08-19T13:07:58.653Z,6.43
2018-08-19T13:10:37.363Z,5.77
2018-08-19T13:13:06.527Z,6.57
2018-08-19T13:15:34.926Z,6.27
2018-08-19T13:18:03.345Z,6.33
2018-08-19T13:20:32.031Z,6.33
2018-08-19T13:23:05.015Z,6.80
2018-08-19T13:25:33.847Z,6.27
2018-08-19T13:28:02.291Z,6.50
2018-08-19T13:30:30.700Z,6.60
2018-08-19T13:32:59.121Z,6.73
2018-08-19T13:35:27.551Z,6.60
2018-08-19T13:37:55.980Z,6.50
2018-08-19T13:40:24.419Z,6.47
2018-08-19T13:42:52.856Z,6.70
2018-08-19T13:45:22.614Z,6.93
2018-08-19T13:47:52.947Z,7.13
2018-08-19T13:50:22.459Z,6.70
2018-08-19T13:52:50.994Z,6.63
2018-08-19T13:55:21.002Z,7.10
2018-08-19T13:57:49.396Z,7.00
2018-08-19T14:00:21.047Z,7.63
2018-08-19T14:02:51.052Z,7.27
2018-08-19T14:05:19.446Z,7.97
2018-08-19T14:07:47.844Z,8.00
2018-08-19T14:10:16.474Z,7.73
2018-08-19T14:12:44.866Z,7.20
2018-08-19T14:15:13.989Z,7.13
2018-08-19T14:17:42.834Z,7.50
2018-08-19T14:20:11.850Z,6.90
2018-08-19T14:22:40.263Z,7.53
2018-08-19T14:25:10.978Z,7.33
2018-08-19T14:27:40.521Z,7.70
2018-08-19T14:30:11.121Z,7.33
2018-08-19T14:32:43.411Z,7.57
2018-08-19T14:35:12.159Z,7.77
2018-08-19T14:37:41.781Z,7.50
2018-08-19T14:40:14.835Z,8.03
2018-08-19T14:42:43.218Z,7.63
2018-08-19T14:45:20.064Z,7.53
2018-08-19T14:47:49.552Z,8.33
2018-08-19T14:50:19.870Z,8.73
2018-08-19T14:52:49.368Z,7.73
2018-08-19T14:55:17.764Z,8.07
2018-08-19T14:57:46.246Z,8.00
2018-08-19T15:00:20.181Z,7.80
2018-08-19T15:02:49.102Z,7.97
2018-08-19T15:05:20.992Z,8.20
2018-08-19T15:07:50.379Z,7.97
2018-08-19T15:10:23.595Z,7.73
2018-08-19T15:12:52.581Z,7.37
2018-08-19T15:15:20.969Z,7.80
2018-08-19T15:17:54.600Z,7.63
2018-08-19T15:20:27.219Z,8.13
2018-08-19T15:23:07.337Z,7.87
2018-08-19T15:25:35.892Z,7.77
2018-08-19T15:28:05.142Z,7.57
2018-08-19T15:30:33.557Z,7.50
2018-08-19T15:33:02.067Z,7.57
2018-08-19T15:35:30.350Z,7.70
2018-08-19T15:37:58.750Z,7.83
2018-08-19T15:40:35.401Z,7.60
2018-08-19T15:43:03.913Z,7.23
2018-08-19T15:45:32.958Z,7.67
2018-08-19T15:48:03.452Z,7.53
2018-08-19T15:50:31.925Z,7.97
2018-08-19T15:53:01.131Z,7.77
2018-08-19T15:55:29.503Z,7.90
2018-08-19T15:58:02.095Z,7.77
2018-08-19T16:00:34.024Z,8.23
2018-08-19T16:03:02.414Z,8.30
2018-08-19T16:05:30.806Z,8.17
2018-08-19T16:07:59.762Z,8.20
2018-08-19T16:10:28.208Z,8.43
2018-08-19T16:12:56.686Z,9.67
2018-08-19T16:15:26.322Z,8.97
2018-08-19T16:17:55.865Z,8.67
2018-08-19T16:20:25.574Z,8.53
2018-08-19T16:22:54.468Z,8.20
2018-08-19T16:25:22.885Z,8.10
2018-08-19T16:27:52.473Z,8.17
2018-08-19T16:30:21.690Z,8.73
2018-08-19T16:32:50.160Z,9.00
2018-08-19T16:35:19.081Z,9.07
2018-08-19T16:37:47.578Z,8.90
2018-08-19T16:40:16.433Z,8.60
2018-08-19T16:42:44.941Z,8.23
2018-08-19T16:45:13.445Z,8.67
2018-08-19T16:47:42.393Z,8.40
2018-08-19T16:50:12.815Z,7.93
2018-08-19T16:52:42.041Z,7.97
2018-08-19T16:55:11.440Z,8.20
2018-08-19T16:57:39.898Z,7.70
2018-08-19T17:00:10.422Z,7.53
2018-08-19T17:02:39.471Z,7.57
2018-08-19T17:05:30.041Z,8.07
2018-08-19T17:07:58.469Z,7.27
2018-08-19T17:10:29.014Z,6.67
2018-08-19T17:12:59.625Z,7.50
2018-08-19T17:15:28.575Z,7.27
2018-08-19T17:17:57.063Z,7.67
2018-08-19T17:20:25.925Z,6.93
2018-08-19T17:22:54.333Z,7.20
2018-08-19T17:25:22.864Z,7.10
2018-08-19T17:27:52.001Z,7.17
2018-08-19T17:30:20.453Z,7.27
2018-08-19T17:32:54.295Z,6.67
2018-08-19T17:35:22.561Z,6.00
2018-08-19T17:37:52.813Z,6.13
2018-08-19T17:40:21.328Z,5.87
2018-08-19T17:42:49.960Z,5.87
2018-08-19T17:45:18.553Z,5.90
2018-08-19T17:47:47.062Z,5.67
2018-08-19T17:50:19.736Z,5.30
2018-08-19T17:52:48.131Z,5.23
2018-08-19T17:55:16.534Z,5.00
2018-08-19T17:57:44.938Z,5.13
2018-08-19T18:00:13.362Z,4.90
2018-08-19T18:02:41.853Z,4.43
2018-08-19T18:05:10.264Z,4.30
2018-08-19T18:07:38.670Z,4.07
2018-08-19T18:10:10.865Z,4.47
2018-08-19T18:12:39.774Z,3.83
2018-08-19T18:15:09.813Z,4.40
2018-08-19T18:17:38.966Z,4.07
2018-08-19T18:20:39.798Z,4.23
2018-08-19T18:23:14.468Z,3.80
2018-08-19T18:25:46.950Z,3.60
2018-08-19T18:28:20.637Z,3.43
2018-08-19T18:30:53.770Z,3.97
2018-08-19T18:33:22.664Z,3.77
2018-08-19T18:35:51.091Z,3.40
2018-08-19T18:38:28.225Z,3.73
2018-08-19T18:40:56.533Z,3.43
2018-08-19T18:43:25.918Z,3.70
2018-08-19T18:45:54.517Z,3.57
2018-08-19T18:48:22.961Z,3.30
2018-08-19T18:50:55.631Z,3.33
2018-08-19T18:53:25.793Z,3.23
2018-08-19T18:55:54.309Z,3.50
2018-08-19T18:58:23.389Z,3.70
2018-08-19T19:00:57.100Z,3.20
2018-08-19T19:03:25.583Z,3.13
2018-08-19T19:05:54.004Z,3.37
2018-08-19T19:08:22.536Z,2.80
2018-08-19T19:10:57.523Z,2.77
2018-08-19T19:13:27.189Z,2.87
2018-08-19T19:15:55.617Z,2.70
2018-08-19T19:18:24.042Z,2.13
2018-08-19T19:20:58.525Z,2.23
2018-08-19T19:23:31.011Z,2.43
2018-08-19T19:26:00.517Z,2.40
2018-08-19T19:28:31.220Z,2.20
2018-08-19T19:31:05.322Z,2.80
2018-08-19T19:33:33.749Z,2.57
2018-08-19T19:36:09.243Z,2.80
2018-08-19T19:38:45.181Z,2.93
2018-08-19T19:41:13.868Z,2.67
2018-08-19T19:43:42.289Z,2.60
2018-08-19T19:46:10.691Z,2.87
2018-08-19T19:48:39.100Z,3.30
2018-08-19T19:51:07.508Z,2.80
2018-08-19T19:53:35.944Z,2.90
2018-08-19T19:56:09.664Z,3.30
2018-08-19T19:58:38.104Z,3.20
2018-08-19T20:01:06.508Z,3.07
2018-08-19T20:03:53.062Z,3.23
2018-08-19T20:06:22.274Z,3.40
2018-08-19T20:08:51.418Z,3.50
2018-08-19T20:11:25.137Z,3.20
2018-08-19T20:13:53.909Z,3.20
2018-08-19T20:16:22.318Z,3.30
2018-08-19T20:18:55.889Z,3.03
2018-08-19T20:21:30.909Z,3.37
2018-08-19T20:23:59.804Z,3.40
2018-08-19T20:26:37.060Z,3.60
2018-08-19T20:29:06.255Z,3.27
2018-08-19T20:31:35.251Z,3.57
2018-08-19T20:34:03.764Z,3.17
2018-08-19T20:36:32.117Z,3.80
2018-08-19T20:39:02.211Z,3.40
2018-08-19T20:41:37.675Z,3.40
2018-08-19T20:44:19.950Z,3.70
2018-08-19T20:46:53.778Z,3.57
2018-08-19T20:49:25.220Z,4.10
2018-08-19T20:52:02.868Z,3.60
2018-08-19T20:54:31.810Z,4.10
2018-08-19T20:57:01.054Z,4.07
2018-08-19T20:59:36.797Z,3.97
2018-08-19T21:02:07.758Z,4.33
2018-08-19T21:04:36.182Z,3.70
2018-08-19T21:07:06.818Z,3.80
2018-08-19T21:09:36.890Z,3.63
2018-08-19T21:12:05.382Z,3.90
2018-08-19T21:14:33.886Z,4.60
2018-08-19T21:17:04.386Z,4.00
2018-08-19T21:19:33.384Z,4.70
2018-08-19T21:22:01.825Z,3.93
2018-08-19T21:24:30.272Z,4.40
2018-08-19T21:27:02.375Z,4.17
2018-08-19T21:29:31.928Z,3.70
2018-08-19T21:32:00.372Z,4.77
2018-08-19T21:34:29.786Z,4.80
2018-08-19T21:36:59.285Z,4.80
2018-08-19T21:39:27.708Z,4.87
2018-08-19T21:41:56.876Z,5.37
2018-08-19T21:44:26.258Z,4.40
2018-08-19T21:46:54.822Z,5.00
2018-08-19T21:49:23.722Z,4.63
2018-08-19T21:51:52.127Z,4.50
2018-08-19T21:54:20.548Z,4.57
2018-08-19T21:56:48.944Z,4.70
2018-08-19T21:59:23.420Z,5.00
2018-08-19T22:01:53.898Z,5.23
2018-08-19T22:04:23.354Z,6.00
2018-08-19T22:06:52.446Z,6.40
2018-08-19T22:09:29.976Z,6.40
2018-08-19T22:11:59.657Z,6.80
2018-08-19T22:14:28.646Z,6.23
2018-08-19T22:17:02.234Z,6.47
2018-08-19T22:19:31.639Z,6.70
2018-08-19T22:22:00.648Z,6.50
2018-08-19T22:24:29.073Z,7.23
2018-08-19T22:27:06.778Z,6.70
2018-08-19T22:29:35.175Z,7.60
2018-08-19T22:32:03.761Z,6.80
2018-08-19T22:34:32.166Z,7.37
2018-08-19T22:37:00.587Z,8.40
2018-08-19T22:39:29.025Z,8.37
2018-08-19T22:41:57.410Z,7.17
2018-08-19T22:44:25.804Z,6.50
2018-08-19T22:46:54.209Z,6.80
2018-08-19T22:49:23.107Z,6.93
2018-08-19T22:51:51.523Z,7.43
2018-08-19T22:54:19.913Z,7.80
2018-08-19T22:56:48.295Z,8.07
2018-08-19T22:59:16.687Z,8.13
2018-08-19T23:01:49.262Z,8.17
2018-08-19T23:04:18.100Z,8.13
2018-08-19T23:06:46.501Z,7.80
2018-08-19T23:09:14.885Z,6.97
2018-08-19T23:11:48.161Z,6.40
2018-08-19T23:14:27.670Z,7.20
2018-08-19T23:16:56.072Z,7.67
2018-08-19T23:19:24.477Z,6.90
2018-08-19T23:21:52.881Z,6.50
2018-08-19T23:24:21.282Z,7.53
2018-08-19T23:26:50.452Z,7.87
2018-08-19T23:29:18.832Z,7.67
2018-08-19T23:31:47.264Z,8.53
2018-08-19T23:34:15.640Z,8.13
2018-08-19T23:36:44.042Z,7.70
2018-08-19T23:39:12.433Z,8.30
2018-08-19T23:41:40.826Z,8.47
2018-08-19T23:44:10.206Z,8.27
2018-08-19T23:46:38.640Z,7.60
2018-08-19T23:49:07.034Z,7.47
2018-08-19T23:51:35.444Z,7.13
2018-08-19T23:54:04.718Z,7.33
2018-08-19T23:56:33.749Z,7.90
2018-08-19T23:59:02.665Z,7.57
